sensor_id;sensor_type;location;lat;lon;timestamp;temperature;humidity
44855;DHT22;30591;48.228;16.398;2023-04-24T00:00:25;13.50;99.90
44855;DHT22;30591;48.228;16.398;2023-04-24T00:02:52;13.40;99.90
44855;DHT22;30591;48.228;16.398;2023-04-24T00:05:24;13.40;99.90
44855;DHT22;30591;48.228;16.398;2023-04-24T00:07:52;13.40;99.90
44855;DHT22;30591;48.228;16.398;2023-04-24T00:10:19;13.40;99.90
44855;DHT22;30591;48.228;16.398;2023-04-24T00:12:47;13.40;99.90
44855;DHT22;30591;48.228;16.398;2023-04-24T00:15:15;13.30;99.90
44855;DHT22;30591;48.228;16.398;2023-04-24T00:17:42;13.30;99.90
44855;DHT22;30591;48.228;16.398;2023-04-24T00:20:10;13.30;99.90
44855;DHT22;30591;48.228;16.398;2023-04-24T00:22:37;13.30;99.90
44855;DHT22;30591;48.228;16.398;2023-04-24T00:25:05;13.30;99.90
44855;DHT22;30591;48.228;16.398;2023-04-24T00:27:32;13.30;99.90
44855;DHT22;30591;48.228;16.398;2023-04-24T00:30:02;13.30;99.90
44855;DHT22;30591;48.228;16.398;2023-04-24T00:32:30;13.40;99.90
44855;DHT22;30591;48.228;16.398;2023-04-24T00:34:57;13.40;99.90
44855;DHT22;30591;48.228;16.398;2023-04-24T00:37:25;13.30;99.90
44855;DHT22;30591;48.228;16.398;2023-04-24T00:39:52;13.30;99.90
44855;DHT22;30591;48.228;16.398;2023-04-24T00:42:20;13.20;99.90
44855;DHT22;30591;48.228;16.398;2023-04-24T00:44:48;13.30;99.90
44855;DHT22;30591;48.228;16.398;2023-04-24T00:47:15;13.30;99.90
44855;DHT22;30591;48.228;16.398;2023-04-24T00:49:43;13.30;99.90
44855;DHT22;30591;48.228;16.398;2023-04-24T00:52:11;13.30;99.90
44855;DHT22;30591;48.228;16.398;2023-04-24T00:54:40;13.10;99.90
44855;DHT22;30591;48.228;16.398;2023-04-24T00:57:07;13.10;99.90
44855;DHT22;30591;48.228;16.398;2023-04-24T00:59:34;13.20;99.90
44855;DHT22;30591;48.228;16.398;2023-04-24T01:02:03;13.20;99.90
44855;DHT22;30591;48.228;16.398;2023-04-24T01:04:31;13.20;99.90
44855;DHT22;30591;48.228;16.398;2023-04-24T01:06:58;13.20;99.90
44855;DHT22;30591;48.228;16.398;2023-04-24T01:09:27;13.10;99.90
44855;DHT22;30591;48.228;16.398;2023-04-24T01:11:54;13.10;99.90
44855;DHT22;30591;48.228;16.398;2023-04-24T01:14:22;13.10;99.90
44855;DHT22;30591;48.228;16.398;2023-04-24T01:16:50;13.10;99.90
44855;DHT22;30591;48.228;16.398;2023-04-24T01:19:18;13.00;99.90
44855;DHT22;30591;48.228;16.398;2023-04-24T01:21:47;13.00;99.90
44855;DHT22;30591;48.228;16.398;2023-04-24T01:24:18;13.00;99.90
44855;DHT22;30591;48.228;16.398;2023-04-24T01:26:47;13.00;99.90
44855;DHT22;30591;48.228;16.398;2023-04-24T01:29:14;13.00;99.90
44855;DHT22;30591;48.228;16.398;2023-04-24T01:31:43;12.80;99.90
44855;DHT22;30591;48.228;16.398;2023-04-24T01:34:10;12.80;99.90
44855;DHT22;30591;48.228;16.398;2023-04-24T01:36:38;12.80;99.90
44855;DHT22;30591;48.228;16.398;2023-04-24T01:39:06;12.70;99.90
44855;DHT22;30591;48.228;16.398;2023-04-24T01:41:33;12.70;99.90
44855;DHT22;30591;48.228;16.398;2023-04-24T01:44:02;12.60;99.90
44855;DHT22;30591;48.228;16.398;2023-04-24T01:46:29;12.50;99.90
44855;DHT22;30591;48.228;16.398;2023-04-24T01:49:00;12.40;99.90
44855;DHT22;30591;48.228;16.398;2023-04-24T01:51:27;12.40;99.90
44855;DHT22;30591;48.228;16.398;2023-04-24T01:53:56;12.30;99.90
44855;DHT22;30591;48.228;16.398;2023-04-24T01:56:24;12.20;99.90
44855;DHT22;30591;48.228;16.398;2023-04-24T01:58:54;12.00;99.90
44855;DHT22;30591;48.228;16.398;2023-04-24T02:01:23;11.90;99.90
44855;DHT22;30591;48.228;16.398;2023-04-24T02:03:52;11.90;99.90
44855;DHT22;30591;48.228;16.398;2023-04-24T02:06:19;11.80;99.90
44855;DHT22;30591;48.228;16.398;2023-04-24T02:08:47;11.80;99.90
44855;DHT22;30591;48.228;16.398;2023-04-24T02:11:14;11.70;99.90
44855;DHT22;30591;48.228;16.398;2023-04-24T02:13:42;11.60;99.90
44855;DHT22;30591;48.228;16.398;2023-04-24T02:16:09;11.40;99.90
44855;DHT22;30591;48.228;16.398;2023-04-24T02:18:36;11.30;99.90
44855;DHT22;30591;48.228;16.398;2023-04-24T02:21:03;11.30;99.90
44855;DHT22;30591;48.228;16.398;2023-04-24T02:23:31;11.40;99.90
44855;DHT22;30591;48.228;16.398;2023-04-24T02:25:58;11.60;99.90
44855;DHT22;30591;48.228;16.398;2023-04-24T02:28:26;11.80;99.90
44855;DHT22;30591;48.228;16.398;2023-04-24T02:30:53;11.80;99.90
44855;DHT22;30591;48.228;16.398;2023-04-24T02:33:21;11.60;99.90
44855;DHT22;30591;48.228;16.398;2023-04-24T02:35:49;11.60;99.90
44855;DHT22;30591;48.228;16.398;2023-04-24T02:38:16;11.60;99.90
44855;DHT22;30591;48.228;16.398;2023-04-24T02:40:43;11.50;99.90
44855;DHT22;30591;48.228;16.398;2023-04-24T02:43:10;11.40;99.90
44855;DHT22;30591;48.228;16.398;2023-04-24T02:45:38;11.30;99.90
44855;DHT22;30591;48.228;16.398;2023-04-24T02:48:05;11.10;99.90
44855;DHT22;30591;48.228;16.398;2023-04-24T02:50:33;11.10;99.90
44855;DHT22;30591;48.228;16.398;2023-04-24T02:53:00;11.10;99.90
44855;DHT22;30591;48.228;16.398;2023-04-24T02:55:27;11.10;99.90
44855;DHT22;30591;48.228;16.398;2023-04-24T02:57:55;11.00;99.90
44855;DHT22;30591;48.228;16.398;2023-04-24T03:00:22;11.10;99.90
44855;DHT22;30591;48.228;16.398;2023-04-24T03:02:49;11.30;99.90
44855;DHT22;30591;48.228;16.398;2023-04-24T03:05:17;11.40;99.90
44855;DHT22;30591;48.228;16.398;2023-04-24T03:07:45;11.40;99.90
44855;DHT22;30591;48.228;16.398;2023-04-24T03:10:12;11.50;99.90
44855;DHT22;30591;48.228;16.398;2023-04-24T03:12:39;11.50;99.90
44855;DHT22;30591;48.228;16.398;2023-04-24T03:15:07;11.50;99.90
44855;DHT22;30591;48.228;16.398;2023-04-24T03:17:36;11.50;99.90
44855;DHT22;30591;48.228;16.398;2023-04-24T03:20:05;11.40;99.90
44855;DHT22;30591;48.228;16.398;2023-04-24T03:22:33;11.30;99.90
44855;DHT22;30591;48.228;16.398;2023-04-24T03:25:05;11.20;99.90
44855;DHT22;30591;48.228;16.398;2023-04-24T03:27:33;11.10;99.90
44855;DHT22;30591;48.228;16.398;2023-04-24T03:30:02;10.90;99.90
44855;DHT22;30591;48.228;16.398;2023-04-24T03:32:42;10.80;99.90
44855;DHT22;30591;48.228;16.398;2023-04-24T03:35:13;10.80;99.90
44855;DHT22;30591;48.228;16.398;2023-04-24T03:37:41;10.80;99.90
44855;DHT22;30591;48.228;16.398;2023-04-24T03:40:28;10.80;99.90
44855;DHT22;30591;48.228;16.398;2023-04-24T03:42:58;10.70;99.90
44855;DHT22;30591;48.228;16.398;2023-04-24T03:45:26;10.50;99.90
44855;DHT22;30591;48.228;16.398;2023-04-24T03:47:53;10.50;99.90
44855;DHT22;30591;48.228;16.398;2023-04-24T03:50:21;10.60;99.90
44855;DHT22;30591;48.228;16.398;2023-04-24T03:52:49;10.50;99.90
44855;DHT22;30591;48.228;16.398;2023-04-24T03:55:28;10.80;99.90
44855;DHT22;30591;48.228;16.398;2023-04-24T03:57:56;10.90;99.90
44855;DHT22;30591;48.228;16.398;2023-04-24T04:00:23;10.90;99.90
44855;DHT22;30591;48.228;16.398;2023-04-24T04:03:04;10.90;99.90
44855;DHT22;30591;48.228;16.398;2023-04-24T04:05:32;11.00;99.90
44855;DHT22;30591;48.228;16.398;2023-04-24T04:07:59;11.00;99.90
44855;DHT22;30591;48.228;16.398;2023-04-24T04:10:27;11.10;99.90
44855;DHT22;30591;48.228;16.398;2023-04-24T04:12:55;11.10;99.90
44855;DHT22;30591;48.228;16.398;2023-04-24T04:15:23;11.10;99.90
44855;DHT22;30591;48.228;16.398;2023-04-24T04:17:50;11.20;99.90
44855;DHT22;30591;48.228;16.398;2023-04-24T04:20:18;11.20;99.90
44855;DHT22;30591;48.228;16.398;2023-04-24T04:22:47;11.20;99.90
44855;DHT22;30591;48.228;16.398;2023-04-24T04:25:21;11.30;99.90
44855;DHT22;30591;48.228;16.398;2023-04-24T04:27:51;11.30;99.90
44855;DHT22;30591;48.228;16.398;2023-04-24T04:30:19;11.30;99.90
44855;DHT22;30591;48.228;16.398;2023-04-24T04:32:55;11.40;99.90
44855;DHT22;30591;48.228;16.398;2023-04-24T04:35:24;11.40;99.90
44855;DHT22;30591;48.228;16.398;2023-04-24T04:37:52;11.40;99.90
44855;DHT22;30591;48.228;16.398;2023-04-24T04:40:44;11.40;99.90
44855;DHT22;30591;48.228;16.398;2023-04-24T04:43:12;11.40;99.90
44855;DHT22;30591;48.228;16.398;2023-04-24T04:45:50;11.50;99.90
44855;DHT22;30591;48.228;16.398;2023-04-24T04:48:36;11.50;99.90
44855;DHT22;30591;48.228;16.398;2023-04-24T04:51:06;11.60;99.90
44855;DHT22;30591;48.228;16.398;2023-04-24T04:53:33;11.60;99.90
44855;DHT22;30591;48.228;16.398;2023-04-24T04:56:01;11.70;99.90
44855;DHT22;30591;48.228;16.398;2023-04-24T04:58:36;11.70;99.90
44855;DHT22;30591;48.228;16.398;2023-04-24T05:01:07;11.80;99.90
44855;DHT22;30591;48.228;16.398;2023-04-24T05:03:40;11.70;99.90
44855;DHT22;30591;48.228;16.398;2023-04-24T05:06:11;11.80;99.90
44855;DHT22;30591;48.228;16.398;2023-04-24T05:08:39;11.80;99.90
44855;DHT22;30591;48.228;16.398;2023-04-24T05:11:19;11.80;99.90
44855;DHT22;30591;48.228;16.398;2023-04-24T05:13:47;11.80;99.90
44855;DHT22;30591;48.228;16.398;2023-04-24T05:16:19;11.80;99.90
44855;DHT22;30591;48.228;16.398;2023-04-24T05:18:48;11.90;99.90
44855;DHT22;30591;48.228;16.398;2023-04-24T05:21:19;11.80;99.90
44855;DHT22;30591;48.228;16.398;2023-04-24T05:23:50;11.90;99.90
44855;DHT22;30591;48.228;16.398;2023-04-24T05:26:30;11.90;99.90
44855;DHT22;30591;48.228;16.398;2023-04-24T05:28:59;11.90;99.90
44855;DHT22;30591;48.228;16.398;2023-04-24T05:31:27;12.10;99.90
44855;DHT22;30591;48.228;16.398;2023-04-24T05:33:54;12.10;99.90
44855;DHT22;30591;48.228;16.398;2023-04-24T05:36:22;12.20;99.90
44855;DHT22;30591;48.228;16.398;2023-04-24T05:38:51;12.30;99.90
44855;DHT22;30591;48.228;16.398;2023-04-24T05:41:18;12.40;99.90
44855;DHT22;30591;48.228;16.398;2023-04-24T05:43:45;12.50;99.90
44855;DHT22;30591;48.228;16.398;2023-04-24T05:46:13;12.70;99.90
44855;DHT22;30591;48.228;16.398;2023-04-24T05:48:40;12.80;99.90
44855;DHT22;30591;48.228;16.398;2023-04-24T05:51:09;13.00;99.90
44855;DHT22;30591;48.228;16.398;2023-04-24T05:53:37;13.20;99.90
44855;DHT22;30591;48.228;16.398;2023-04-24T05:56:04;13.40;99.90
44855;DHT22;30591;48.228;16.398;2023-04-24T05:58:32;13.70;99.90
44855;DHT22;30591;48.228;16.398;2023-04-24T06:00:59;14.00;99.90
44855;DHT22;30591;48.228;16.398;2023-04-24T06:03:28;14.20;99.90
44855;DHT22;30591;48.228;16.398;2023-04-24T06:05:56;14.20;99.90
44855;DHT22;30591;48.228;16.398;2023-04-24T06:08:24;14.20;99.90
44855;DHT22;30591;48.228;16.398;2023-04-24T06:10:52;14.20;99.90
44855;DHT22;30591;48.228;16.398;2023-04-24T06:13:21;14.10;99.90
44855;DHT22;30591;48.228;16.398;2023-04-24T06:16:11;14.00;99.90
44855;DHT22;30591;48.228;16.398;2023-04-24T06:18:42;14.20;99.90
44855;DHT22;30591;48.228;16.398;2023-04-24T06:21:09;14.10;99.90
44855;DHT22;30591;48.228;16.398;2023-04-24T06:23:36;13.90;99.90
44855;DHT22;30591;48.228;16.398;2023-04-24T06:26:04;13.90;99.90
44855;DHT22;30591;48.228;16.398;2023-04-24T06:28:31;14.00;99.90
44855;DHT22;30591;48.228;16.398;2023-04-24T06:30:59;13.90;99.90
44855;DHT22;30591;48.228;16.398;2023-04-24T06:33:26;13.80;99.90
44855;DHT22;30591;48.228;16.398;2023-04-24T06:35:53;13.80;99.90
44855;DHT22;30591;48.228;16.398;2023-04-24T06:38:20;13.80;99.90
44855;DHT22;30591;48.228;16.398;2023-04-24T06:40:48;13.70;99.90
44855;DHT22;30591;48.228;16.398;2023-04-24T06:43:15;13.80;99.90
44855;DHT22;30591;48.228;16.398;2023-04-24T06:45:42;13.90;99.90
44855;DHT22;30591;48.228;16.398;2023-04-24T06:48:11;14.10;99.90
44855;DHT22;30591;48.228;16.398;2023-04-24T06:50:38;14.20;99.90
44855;DHT22;30591;48.228;16.398;2023-04-24T06:53:06;14.30;99.90
44855;DHT22;30591;48.228;16.398;2023-04-24T06:55:35;14.40;99.90
44855;DHT22;30591;48.228;16.398;2023-04-24T06:58:02;14.50;99.90
44855;DHT22;30591;48.228;16.398;2023-04-24T07:00:29;14.60;99.90
44855;DHT22;30591;48.228;16.398;2023-04-24T07:02:57;14.70;99.90
44855;DHT22;30591;48.228;16.398;2023-04-24T07:05:24;14.90;99.90
44855;DHT22;30591;48.228;16.398;2023-04-24T07:07:52;14.90;99.90
44855;DHT22;30591;48.228;16.398;2023-04-24T07:10:20;14.80;99.90
44855;DHT22;30591;48.228;16.398;2023-04-24T07:12:48;14.80;99.90
44855;DHT22;30591;48.228;16.398;2023-04-24T07:15:15;14.90;99.90
44855;DHT22;30591;48.228;16.398;2023-04-24T07:17:43;14.80;99.90
44855;DHT22;30591;48.228;16.398;2023-04-24T07:20:11;14.90;99.90
44855;DHT22;30591;48.228;16.398;2023-04-24T07:22:38;15.10;99.90
44855;DHT22;30591;48.228;16.398;2023-04-24T07:25:06;15.10;99.90
44855;DHT22;30591;48.228;16.398;2023-04-24T07:27:34;15.40;99.90
44855;DHT22;30591;48.228;16.398;2023-04-24T07:30:04;15.40;99.90
44855;DHT22;30591;48.228;16.398;2023-04-24T07:32:32;15.80;99.90
44855;DHT22;30591;48.228;16.398;2023-04-24T07:34:59;16.00;99.90
44855;DHT22;30591;48.228;16.398;2023-04-24T07:37:26;15.90;99.90
44855;DHT22;30591;48.228;16.398;2023-04-24T07:39:55;15.90;99.90
44855;DHT22;30591;48.228;16.398;2023-04-24T07:42:22;15.90;99.90
44855;DHT22;30591;48.228;16.398;2023-04-24T07:44:49;15.70;99.90
44855;DHT22;30591;48.228;16.398;2023-04-24T07:47:18;15.60;99.90
44855;DHT22;30591;48.228;16.398;2023-04-24T07:49:45;15.50;99.90
44855;DHT22;30591;48.228;16.398;2023-04-24T07:52:12;15.40;99.90
44855;DHT22;30591;48.228;16.398;2023-04-24T07:54:39;15.60;99.90
44855;DHT22;30591;48.228;16.398;2023-04-24T07:57:06;15.80;99.90
44855;DHT22;30591;48.228;16.398;2023-04-24T07:59:35;15.80;99.90
44855;DHT22;30591;48.228;16.398;2023-04-24T08:02:02;15.50;99.90
44855;DHT22;30591;48.228;16.398;2023-04-24T08:04:29;15.70;99.90
44855;DHT22;30591;48.228;16.398;2023-04-24T08:06:57;15.80;99.90
44855;DHT22;30591;48.228;16.398;2023-04-24T08:09:24;15.80;99.90
44855;DHT22;30591;48.228;16.398;2023-04-24T08:11:53;15.70;99.90
44855;DHT22;30591;48.228;16.398;2023-04-24T08:14:21;15.70;99.90
44855;DHT22;30591;48.228;16.398;2023-04-24T08:16:48;15.80;99.90
44855;DHT22;30591;48.228;16.398;2023-04-24T08:19:15;15.80;99.90
44855;DHT22;30591;48.228;16.398;2023-04-24T08:21:42;15.80;99.90
44855;DHT22;30591;48.228;16.398;2023-04-24T08:24:09;15.70;99.90
44855;DHT22;30591;48.228;16.398;2023-04-24T08:26:37;15.60;99.90
44855;DHT22;30591;48.228;16.398;2023-04-24T08:29:04;15.70;99.90
44855;DHT22;30591;48.228;16.398;2023-04-24T08:31:33;15.40;99.90
44855;DHT22;30591;48.228;16.398;2023-04-24T08:34:01;15.60;99.90
44855;DHT22;30591;48.228;16.398;2023-04-24T08:36:28;15.60;99.90
44855;DHT22;30591;48.228;16.398;2023-04-24T08:39:12;15.80;99.90
44855;DHT22;30591;48.228;16.398;2023-04-24T08:41:41;15.70;99.90
44855;DHT22;30591;48.228;16.398;2023-04-24T08:44:11;15.70;99.90
44855;DHT22;30591;48.228;16.398;2023-04-24T08:46:40;15.70;99.90
44855;DHT22;30591;48.228;16.398;2023-04-24T08:49:08;15.90;99.90
44855;DHT22;30591;48.228;16.398;2023-04-24T08:51:36;16.00;99.90
44855;DHT22;30591;48.228;16.398;2023-04-24T08:54:05;16.00;99.90
44855;DHT22;30591;48.228;16.398;2023-04-24T08:56:35;16.00;99.90
44855;DHT22;30591;48.228;16.398;2023-04-24T08:59:06;16.10;99.90
44855;DHT22;30591;48.228;16.398;2023-04-24T09:01:35;15.80;99.90
44855;DHT22;30591;48.228;16.398;2023-04-24T09:04:04;15.60;99.90
44855;DHT22;30591;48.228;16.398;2023-04-24T09:06:33;15.20;99.90
44855;DHT22;30591;48.228;16.398;2023-04-24T09:09:02;15.00;99.90
44855;DHT22;30591;48.228;16.398;2023-04-24T09:11:31;14.90;99.90
44855;DHT22;30591;48.228;16.398;2023-04-24T09:14:00;14.70;99.90
44855;DHT22;30591;48.228;16.398;2023-04-24T09:16:28;14.50;99.90
44855;DHT22;30591;48.228;16.398;2023-04-24T09:18:56;14.40;99.90
44855;DHT22;30591;48.228;16.398;2023-04-24T09:21:24;14.30;99.90
44855;DHT22;30591;48.228;16.398;2023-04-24T09:24:02;14.20;99.90
44855;DHT22;30591;48.228;16.398;2023-04-24T09:26:31;14.10;99.90
44855;DHT22;30591;48.228;16.398;2023-04-24T09:28:59;14.20;99.90
44855;DHT22;30591;48.228;16.398;2023-04-24T09:31:28;14.20;99.90
44855;DHT22;30591;48.228;16.398;2023-04-24T09:34:00;14.20;99.90
44855;DHT22;30591;48.228;16.398;2023-04-24T09:36:41;14.20;99.90
44855;DHT22;30591;48.228;16.398;2023-04-24T09:39:15;14.10;99.90
44855;DHT22;30591;48.228;16.398;2023-04-24T09:41:53;14.00;99.90
44855;DHT22;30591;48.228;16.398;2023-04-24T09:44:26;13.80;99.90
44855;DHT22;30591;48.228;16.398;2023-04-24T09:46:56;13.80;99.90
44855;DHT22;30591;48.228;16.398;2023-04-24T09:49:28;13.70;99.90
44855;DHT22;30591;48.228;16.398;2023-04-24T09:52:06;13.60;99.90
44855;DHT22;30591;48.228;16.398;2023-04-24T09:54:34;13.40;99.90
44855;DHT22;30591;48.228;16.398;2023-04-24T09:57:04;13.30;99.90
44855;DHT22;30591;48.228;16.398;2023-04-24T09:59:31;13.00;99.90
44855;DHT22;30591;48.228;16.398;2023-04-24T10:02:01;13.00;99.90
44855;DHT22;30591;48.228;16.398;2023-04-24T10:04:29;12.90;99.90
44855;DHT22;30591;48.228;16.398;2023-04-24T10:06:57;12.90;99.90
44855;DHT22;30591;48.228;16.398;2023-04-24T10:09:26;12.80;99.90
44855;DHT22;30591;48.228;16.398;2023-04-24T10:11:54;12.70;99.90
44855;DHT22;30591;48.228;16.398;2023-04-24T10:14:23;12.60;99.90
44855;DHT22;30591;48.228;16.398;2023-04-24T10:16:55;12.70;99.90
44855;DHT22;30591;48.228;16.398;2023-04-24T10:19:26;12.60;99.90
44855;DHT22;30591;48.228;16.398;2023-04-24T10:21:53;12.70;99.90
44855;DHT22;30591;48.228;16.398;2023-04-24T10:24:22;12.80;99.90
44855;DHT22;30591;48.228;16.398;2023-04-24T10:26:49;12.80;99.90
44855;DHT22;30591;48.228;16.398;2023-04-24T10:29:18;12.90;99.90
44855;DHT22;30591;48.228;16.398;2023-04-24T10:31:46;12.90;99.90
44855;DHT22;30591;48.228;16.398;2023-04-24T10:34:16;12.90;99.90
44855;DHT22;30591;48.228;16.398;2023-04-24T10:36:50;12.90;99.90
44855;DHT22;30591;48.228;16.398;2023-04-24T10:39:19;13.00;99.90
44855;DHT22;30591;48.228;16.398;2023-04-24T10:41:55;12.90;99.90
44855;DHT22;30591;48.228;16.398;2023-04-24T10:44:25;12.90;99.90
44855;DHT22;30591;48.228;16.398;2023-04-24T10:47:02;12.90;99.90
44855;DHT22;30591;48.228;16.398;2023-04-24T10:49:31;13.00;99.90
44855;DHT22;30591;48.228;16.398;2023-04-24T10:52:03;13.00;99.90
44855;DHT22;30591;48.228;16.398;2023-04-24T10:54:47;12.90;99.90
44855;DHT22;30591;48.228;16.398;2023-04-24T10:59:51;13.00;99.90
44855;DHT22;30591;48.228;16.398;2023-04-24T11:02:36;13.10;99.90
44855;DHT22;30591;48.228;16.398;2023-04-24T11:05:06;13.20;99.90
44855;DHT22;30591;48.228;16.398;2023-04-24T11:08:11;13.30;99.90
44855;DHT22;30591;48.228;16.398;2023-04-24T11:13:23;13.20;99.90
44855;DHT22;30591;48.228;16.398;2023-04-24T11:18:51;13.30;99.90
44855;DHT22;30591;48.228;16.398;2023-04-24T11:21:22;13.40;99.90
44855;DHT22;30591;48.228;16.398;2023-04-24T11:23:49;13.20;99.90
44855;DHT22;30591;48.228;16.398;2023-04-24T11:26:26;13.40;99.90
44855;DHT22;30591;48.228;16.398;2023-04-24T11:29:08;13.20;99.90
44855;DHT22;30591;48.228;16.398;2023-04-24T11:31:37;13.20;99.90
44855;DHT22;30591;48.228;16.398;2023-04-24T11:34:10;13.20;99.90
44855;DHT22;30591;48.228;16.398;2023-04-24T11:36:38;13.30;99.90
44855;DHT22;30591;48.228;16.398;2023-04-24T11:39:05;13.00;99.90
44855;DHT22;30591;48.228;16.398;2023-04-24T11:41:34;13.10;99.90
44855;DHT22;30591;48.228;16.398;2023-04-24T11:44:03;13.00;99.90
44855;DHT22;30591;48.228;16.398;2023-04-24T11:46:32;13.00;99.90
44855;DHT22;30591;48.228;16.398;2023-04-24T11:49:00;13.00;99.90
44855;DHT22;30591;48.228;16.398;2023-04-24T11:51:28;12.90;99.90
44855;DHT22;30591;48.228;16.398;2023-04-24T11:54:07;12.80;99.90
44855;DHT22;30591;48.228;16.398;2023-04-24T11:56:35;12.90;99.90
44855;DHT22;30591;48.228;16.398;2023-04-24T11:59:04;13.00;99.90
44855;DHT22;30591;48.228;16.398;2023-04-24T12:01:43;13.00;99.90
44855;DHT22;30591;48.228;16.398;2023-04-24T12:04:12;13.00;99.90
44855;DHT22;30591;48.228;16.398;2023-04-24T12:06:59;13.30;99.90
44855;DHT22;30591;48.228;16.398;2023-04-24T12:09:27;13.30;99.90
44855;DHT22;30591;48.228;16.398;2023-04-24T12:11:55;13.40;99.90
44855;DHT22;30591;48.228;16.398;2023-04-24T12:14:24;13.40;99.90
44855;DHT22;30591;48.228;16.398;2023-04-24T12:16:51;13.50;99.90
44855;DHT22;30591;48.228;16.398;2023-04-24T12:19:21;13.40;99.90
44855;DHT22;30591;48.228;16.398;2023-04-24T12:22:02;13.20;99.90
44855;DHT22;30591;48.228;16.398;2023-04-24T12:24:29;13.30;99.90
44855;DHT22;30591;48.228;16.398;2023-04-24T12:26:58;13.50;99.90
44855;DHT22;30591;48.228;16.398;2023-04-24T12:29:25;13.70;99.90
44855;DHT22;30591;48.228;16.398;2023-04-24T12:31:53;13.70;99.90
44855;DHT22;30591;48.228;16.398;2023-04-24T12:34:22;13.60;99.90
44855;DHT22;30591;48.228;16.398;2023-04-24T12:36:49;13.60;99.90
44855;DHT22;30591;48.228;16.398;2023-04-24T12:39:17;13.50;99.90
44855;DHT22;30591;48.228;16.398;2023-04-24T12:41:56;13.50;99.90
44855;DHT22;30591;48.228;16.398;2023-04-24T12:44:34;13.40;99.90
44855;DHT22;30591;48.228;16.398;2023-04-24T12:47:01;13.30;99.90
44855;DHT22;30591;48.228;16.398;2023-04-24T12:49:32;13.30;99.90
44855;DHT22;30591;48.228;16.398;2023-04-24T12:51:59;13.30;99.90
44855;DHT22;30591;48.228;16.398;2023-04-24T12:54:32;13.50;99.90
44855;DHT22;30591;48.228;16.398;2023-04-24T12:56:59;13.30;99.90
44855;DHT22;30591;48.228;16.398;2023-04-24T12:59:27;13.40;99.90
44855;DHT22;30591;48.228;16.398;2023-04-24T13:01:54;13.40;99.90
44855;DHT22;30591;48.228;16.398;2023-04-24T13:04:22;13.70;99.90
44855;DHT22;30591;48.228;16.398;2023-04-24T13:06:49;14.00;99.90
44855;DHT22;30591;48.228;16.398;2023-04-24T13:09:17;13.80;99.90
44855;DHT22;30591;48.228;16.398;2023-04-24T13:11:44;13.60;99.90
44855;DHT22;30591;48.228;16.398;2023-04-24T13:14:11;13.50;99.90
44855;DHT22;30591;48.228;16.398;2023-04-24T13:16:38;13.50;99.90
44855;DHT22;30591;48.228;16.398;2023-04-24T13:19:06;13.50;99.90
44855;DHT22;30591;48.228;16.398;2023-04-24T13:21:33;13.40;99.90
44855;DHT22;30591;48.228;16.398;2023-04-24T13:24:01;13.40;99.90
44855;DHT22;30591;48.228;16.398;2023-04-24T13:26:28;13.70;99.90
44855;DHT22;30591;48.228;16.398;2023-04-24T13:28:55;13.70;99.90
44855;DHT22;30591;48.228;16.398;2023-04-24T13:31:22;13.60;99.90
44855;DHT22;30591;48.228;16.398;2023-04-24T13:33:49;13.40;99.90
44855;DHT22;30591;48.228;16.398;2023-04-24T13:36:17;13.50;99.90
44855;DHT22;30591;48.228;16.398;2023-04-24T13:38:44;13.40;99.90
44855;DHT22;30591;48.228;16.398;2023-04-24T13:41:12;13.40;99.90
44855;DHT22;30591;48.228;16.398;2023-04-24T13:43:39;13.40;99.90
44855;DHT22;30591;48.228;16.398;2023-04-24T13:46:09;13.30;99.90
44855;DHT22;30591;48.228;16.398;2023-04-24T13:48:37;13.30;99.90
44855;DHT22;30591;48.228;16.398;2023-04-24T13:51:04;13.30;99.90
44855;DHT22;30591;48.228;16.398;2023-04-24T13:53:31;13.40;99.90
44855;DHT22;30591;48.228;16.398;2023-04-24T13:55:59;13.20;99.90
44855;DHT22;30591;48.228;16.398;2023-04-24T13:58:27;13.10;99.90
44855;DHT22;30591;48.228;16.398;2023-04-24T14:00:55;13.10;99.90
44855;DHT22;30591;48.228;16.398;2023-04-24T14:03:23;13.20;99.90
44855;DHT22;30591;48.228;16.398;2023-04-24T14:05:50;13.00;99.90
44855;DHT22;30591;48.228;16.398;2023-04-24T14:08:18;13.00;99.90
44855;DHT22;30591;48.228;16.398;2023-04-24T14:10:45;13.10;99.90
44855;DHT22;30591;48.228;16.398;2023-04-24T14:13:13;13.10;99.90
44855;DHT22;30591;48.228;16.398;2023-04-24T14:15:40;13.10;99.90
44855;DHT22;30591;48.228;16.398;2023-04-24T14:18:08;13.20;99.90
44855;DHT22;30591;48.228;16.398;2023-04-24T14:20:35;13.20;99.90
44855;DHT22;30591;48.228;16.398;2023-04-24T14:23:03;13.20;99.90
44855;DHT22;30591;48.228;16.398;2023-04-24T14:25:32;13.30;99.90
44855;DHT22;30591;48.228;16.398;2023-04-24T14:27:59;13.30;99.90
44855;DHT22;30591;48.228;16.398;2023-04-24T14:30:27;13.40;99.90
44855;DHT22;30591;48.228;16.398;2023-04-24T14:32:54;13.30;99.90
44855;DHT22;30591;48.228;16.398;2023-04-24T14:35:21;13.40;99.90
44855;DHT22;30591;48.228;16.398;2023-04-24T14:37:49;13.40;99.90
44855;DHT22;30591;48.228;16.398;2023-04-24T14:40:17;13.40;99.90
44855;DHT22;30591;48.228;16.398;2023-04-24T14:43:04;13.50;99.90
44855;DHT22;30591;48.228;16.398;2023-04-24T14:45:31;13.60;99.90
44855;DHT22;30591;48.228;16.398;2023-04-24T14:47:59;13.60;99.90
44855;DHT22;30591;48.228;16.398;2023-04-24T14:50:26;13.80;99.90
44855;DHT22;30591;48.228;16.398;2023-04-24T14:52:55;13.70;99.90
44855;DHT22;30591;48.228;16.398;2023-04-24T14:55:25;13.70;99.90
44855;DHT22;30591;48.228;16.398;2023-04-24T14:57:53;13.90;99.90
44855;DHT22;30591;48.228;16.398;2023-04-24T15:00:21;14.10;99.90
44855;DHT22;30591;48.228;16.398;2023-04-24T15:02:51;14.00;99.90
44855;DHT22;30591;48.228;16.398;2023-04-24T15:05:18;14.10;99.90
44855;DHT22;30591;48.228;16.398;2023-04-24T15:07:46;14.10;99.90
44855;DHT22;30591;48.228;16.398;2023-04-24T15:10:14;14.10;99.90
44855;DHT22;30591;48.228;16.398;2023-04-24T15:12:41;14.10;99.90
44855;DHT22;30591;48.228;16.398;2023-04-24T15:15:09;14.10;99.90
44855;DHT22;30591;48.228;16.398;2023-04-24T15:17:36;14.00;99.90
44855;DHT22;30591;48.228;16.398;2023-04-24T15:20:05;14.00;99.90
44855;DHT22;30591;48.228;16.398;2023-04-24T15:22:34;14.10;99.90
44855;DHT22;30591;48.228;16.398;2023-04-24T15:25:02;14.20;99.90
44855;DHT22;30591;48.228;16.398;2023-04-24T15:27:42;14.20;99.90
44855;DHT22;30591;48.228;16.398;2023-04-24T15:30:11;14.20;99.90
44855;DHT22;30591;48.228;16.398;2023-04-24T15:32:39;14.30;99.90
44855;DHT22;30591;48.228;16.398;2023-04-24T15:35:06;14.20;99.90